createdAt,value
2023-04-15T00:01:10.197Z,15.50
2023-04-15T00:03:37.227Z,10.00
2023-04-15T00:06:04.474Z,14.00
2023-04-15T00:08:31.337Z,12.00
2023-04-15T00:11:03.240Z,9.75
2023-04-15T00:13:36.052Z,12.40
2023-04-15T00:16:03.094Z,12.00
2023-04-15T00:18:30.540Z,13.00
2023-04-15T00:20:57.445Z,13.00
2023-04-15T00:23:24.442Z,9.50
2023-04-15T00:25:52.102Z,11.00
2023-04-15T00:28:19.193Z,10.50
2023-04-15T00:30:46.480Z,15.00
2023-04-15T00:33:14.965Z,16.00
2023-04-15T00:35:42.133Z,12.50
2023-04-15T00:38:09.828Z,15.67
2023-04-15T00:40:36.783Z,17.50
2023-04-15T00:43:04.374Z,13.50
2023-04-15T00:45:32.151Z,17.67
2023-04-15T00:47:59.474Z,10.00
2023-04-15T00:50:27.212Z,14.33
2023-04-15T00:52:56.172Z,13.20
2023-04-15T00:55:23.131Z,14.00
2023-04-15T00:57:50.947Z,17.00
2023-04-15T01:00:18.259Z,14.00
2023-04-15T01:02:46.174Z,16.50
2023-04-15T01:05:14.779Z,14.33
2023-04-15T01:07:41.628Z,15.00
2023-04-15T01:10:09.342Z,12.50
2023-04-15T01:12:39.621Z,17.60
2023-04-15T01:15:08.146Z,18.00
2023-04-15T01:17:36.497Z,16.75
2023-04-15T01:20:05.419Z,13.00
2023-04-15T01:22:34.572Z,18.50
2023-04-15T01:25:17.775Z,18.00
2023-04-15T01:27:45.673Z,17.33
2023-04-15T01:30:12.700Z,14.00
2023-04-15T01:32:39.994Z,11.00
2023-04-15T01:35:09.056Z,18.33
2023-04-15T01:37:37.015Z,14.00
2023-04-15T01:40:04.241Z,16.00
2023-04-15T01:42:51.298Z,14.00
2023-04-15T01:45:18.373Z,14.00
2023-04-15T01:47:45.533Z,16.00
2023-04-15T01:50:14.040Z,18.67
2023-04-15T01:52:41.193Z,18.50
2023-04-15T01:55:09.763Z,19.00
2023-04-15T01:57:56.296Z,13.33
2023-04-15T02:00:23.684Z,16.00
2023-04-15T02:02:51.379Z,16.50
2023-04-15T02:05:18.312Z,10.00
2023-04-15T02:07:46.391Z,20.67
2023-04-15T02:10:31.576Z,14.50
2023-04-15T02:13:00.283Z,15.00
2023-04-15T02:15:27.394Z,16.00
2023-04-15T02:17:55.460Z,13.00
2023-04-15T02:20:22.710Z,12.50
2023-04-15T02:22:50.443Z,12.75
2023-04-15T02:25:17.509Z,14.00
2023-04-15T02:27:46.219Z,14.60
2023-04-15T02:30:14.133Z,14.67
2023-04-15T02:32:43.858Z,19.50
2023-04-15T02:35:12.127Z,19.67
2023-04-15T02:37:43.885Z,16.00
2023-04-15T02:40:14.183Z,19.00
2023-04-15T02:42:43.016Z,22.00
2023-04-15T02:45:15.157Z,14.80
2023-04-15T02:47:42.142Z,18.00
2023-04-15T02:50:12.784Z,18.00
2023-04-15T02:52:43.477Z,16.83
2023-04-15T02:55:12.877Z,18.40
2023-04-15T02:57:41.784Z,21.00
2023-04-15T03:00:11.824Z,18.00
2023-04-15T03:02:42.443Z,18.33
2023-04-15T03:05:14.710Z,21.33
2023-04-15T03:07:42.556Z,17.67
2023-04-15T03:10:11.342Z,20.00
2023-04-15T03:12:39.615Z,21.00
2023-04-15T03:15:07.371Z,18.00
2023-04-15T03:17:36.943Z,17.50
2023-04-15T03:20:07.431Z,20.67
2023-04-15T03:22:34.542Z,31.00
2023-04-15T03:25:02.328Z,22.33
2023-04-15T03:27:30.012Z,22.00
2023-04-15T03:29:57.820Z,23.67
2023-04-15T03:32:25.572Z,21.33
2023-04-15T03:34:52.540Z,15.50
2023-04-15T03:37:20.150Z,19.67
2023-04-15T03:39:48.921Z,19.80
2023-04-15T03:42:16.733Z,22.00
2023-04-15T03:44:43.656Z,19.00
2023-04-15T03:47:10.514Z,14.00
2023-04-15T03:49:38.322Z,19.00
2023-04-15T03:52:06.285Z,20.00
2023-04-15T03:54:33.185Z,21.00
2023-04-15T03:57:00.065Z,17.50
2023-04-15T03:59:27.126Z,16.00
2023-04-15T04:01:56.142Z,19.80
2023-04-15T04:04:23.090Z,19.00
2023-04-15T04:06:52.710Z,18.83
2023-04-15T04:09:21.801Z,18.20
2023-04-15T04:11:49.499Z,24.67
2023-04-15T04:14:17.267Z,21.33
2023-04-15T04:16:45.433Z,21.00
2023-04-15T04:19:12.347Z,8.00
2023-04-15T04:21:40.122Z,25.00
2023-04-15T04:24:08.869Z,18.00
2023-04-15T04:26:35.908Z,18.50
2023-04-15T04:29:05.425Z,23.00
2023-04-15T04:31:33.275Z,20.00
2023-04-15T04:34:01.135Z,21.00
2023-04-15T04:36:28.951Z,25.00
2023-04-15T04:38:57.395Z,24.33
2023-04-15T04:41:25.191Z,22.33
2023-04-15T04:43:52.895Z,21.00
2023-04-15T04:46:20.862Z,23.00
2023-04-15T04:48:48.950Z,32.00
2023-04-15T04:51:16.293Z,28.00
2023-04-15T04:53:46.263Z,29.50
2023-04-15T04:56:14.122Z,26.33
2023-04-15T04:58:42.500Z,31.33
2023-04-15T05:01:10.357Z,38.00
2023-04-15T05:03:38.339Z,24.50
2023-04-15T05:06:07.505Z,28.00
2023-04-15T05:08:35.482Z,29.33
2023-04-15T05:11:03.887Z,33.33
2023-04-15T05:13:30.799Z,37.50
2023-04-15T05:15:58.058Z,29.00
2023-04-15T05:18:25.943Z,26.00
2023-04-15T05:20:54.053Z,26.00
2023-04-15T05:23:21.910Z,28.33
2023-04-15T05:25:48.857Z,25.50
2023-04-15T05:28:18.298Z,26.00
2023-04-15T05:30:46.343Z,24.33
2023-04-15T05:33:14.511Z,26.67
2023-04-15T05:35:42.372Z,28.00
2023-04-15T05:38:11.932Z,25.00
2023-04-15T05:40:39.854Z,28.00
2023-04-15T05:43:07.674Z,25.33
2023-04-15T05:45:35.323Z,20.67
2023-04-15T05:48:02.385Z,24.00
2023-04-15T05:50:29.787Z,25.00
2023-04-15T05:52:57.808Z,22.67
2023-04-15T05:55:26.121Z,26.33
2023-04-15T05:57:53.125Z,30.00
2023-04-15T06:00:22.696Z,36.00
2023-04-15T06:02:50.803Z,30.00
2023-04-15T06:05:19.316Z,36.67
2023-04-15T06:07:48.607Z,28.67
2023-04-15T06:10:15.756Z,30.50
2023-04-15T06:12:43.803Z,24.33
2023-04-15T06:15:11.368Z,28.50
2023-04-15T06:17:38.537Z,24.00
2023-04-15T06:20:08.648Z,25.67
2023-04-15T06:22:38.679Z,23.67
2023-04-15T06:25:08.223Z,21.50
2023-04-15T06:27:36.040Z,30.67
2023-04-15T06:30:03.191Z,27.50
2023-04-15T06:32:31.139Z,25.67
2023-04-15T06:34:58.339Z,24.00
2023-04-15T06:37:26.127Z,21.33
2023-04-15T06:39:53.980Z,23.00
2023-04-15T06:42:21.711Z,15.33
2023-04-15T06:44:49.432Z,18.33
2023-04-15T06:47:17.358Z,18.33
2023-04-15T06:49:45.776Z,20.67
2023-04-15T06:52:13.687Z,21.00
2023-04-15T06:54:40.949Z,19.00
2023-04-15T06:57:09.424Z,29.00
2023-04-15T06:59:37.273Z,19.00
2023-04-15T07:02:05.167Z,25.00
2023-04-15T07:04:32.933Z,26.00
2023-04-15T07:07:00.828Z,19.00
2023-04-15T07:09:30.487Z,16.00
2023-04-15T07:11:57.431Z,15.50
2023-04-15T07:14:25.213Z,16.00
2023-04-15T07:16:53.351Z,12.33
2023-04-15T07:19:21.186Z,20.00
2023-04-15T07:21:50.110Z,19.00
2023-04-15T07:24:20.835Z,21.00
2023-04-15T07:26:48.866Z,17.33
2023-04-15T07:29:16.784Z,19.00
2023-04-15T07:31:44.651Z,18.67
2023-04-15T07:34:14.155Z,18.50
2023-04-15T07:36:41.315Z,15.50
2023-04-15T07:39:08.405Z,15.00
2023-04-15T07:41:36.186Z,15.00
2023-04-15T07:44:03.352Z,12.50
2023-04-15T07:46:31.324Z,16.67
2023-04-15T07:49:00.925Z,17.00
2023-04-15T07:51:29.775Z,12.67
2023-04-15T07:53:57.458Z,15.00
2023-04-15T07:56:24.391Z,12.00
2023-04-15T07:58:51.666Z,11.00
2023-04-15T08:01:19.470Z,11.67
2023-04-15T08:03:47.367Z,5.75
2023-04-15T08:06:16.271Z,11.80
2023-04-15T08:08:44.063Z,7.50
2023-04-15T08:11:10.985Z,8.00
2023-04-15T08:13:38.901Z,5.00
2023-04-15T08:16:33.402Z,8.50
2023-04-15T08:19:01.534Z,9.75
2023-04-15T08:21:31.320Z,4.50
2023-04-15T08:23:59.109Z,8.75
2023-04-15T08:26:26.485Z,13.00
2023-04-15T08:28:53.493Z,8.00
2023-04-15T08:31:20.263Z,8.00
2023-04-15T08:33:47.473Z,6.00
2023-04-15T08:36:15.216Z,5.00
2023-04-15T08:38:43.000Z,9.00
2023-04-15T08:41:21.291Z,5.25
2023-04-15T08:43:59.255Z,3.00
2023-04-15T08:46:27.096Z,5.75
2023-04-15T08:48:58.068Z,2.00
2023-04-15T08:51:25.620Z,7.00
2023-04-15T08:53:53.757Z,5.00
2023-04-15T08:56:25.670Z,5.00
2023-04-15T08:58:53.633Z,8.00
2023-04-15T09:01:21.842Z,6.25
2023-04-15T09:03:50.761Z,5.00
2023-04-15T09:06:18.577Z,6.00
2023-04-15T09:08:45.898Z,5.00
2023-04-15T09:11:13.339Z,2.00
2023-04-15T09:13:40.980Z,1.75
2023-04-15T09:16:09.417Z,5.00
2023-04-15T09:18:39.381Z,4.25
2023-04-15T09:21:15.249Z,3.00
2023-04-15T09:23:56.360Z,5.00
2023-04-15T09:26:34.860Z,4.50
2023-04-15T09:29:13.567Z,6.00
2023-04-15T09:31:41.768Z,3.00
2023-04-15T09:34:08.908Z,1.67
2023-04-15T09:36:53.395Z,1.00
2023-04-15T09:39:21.646Z,4.00
2023-04-15T09:42:06.935Z,2.00
2023-04-15T09:44:34.657Z,3.50
2023-04-15T09:47:02.421Z,2.75
2023-04-15T09:49:30.216Z,3.50
2023-04-15T09:52:05.740Z,1.00
2023-04-15T09:54:38.892Z,1.00
2023-04-15T09:57:13.221Z,3.00
2023-04-15T09:59:41.082Z,2.00
2023-04-15T10:02:08.479Z,2.00
2023-04-15T10:04:40.046Z,1.33
2023-04-15T10:07:10.164Z,2.00
2023-04-15T10:09:39.699Z,2.25
2023-04-15T10:12:07.538Z,1.75
2023-04-15T10:14:38.799Z,3.00
2023-04-15T10:17:11.709Z,1.00
2023-04-15T10:19:39.497Z,3.00
2023-04-15T10:22:07.030Z,5.00
2023-04-15T10:24:34.392Z,1.00
2023-04-15T10:27:04.562Z,1.00
2023-04-15T10:29:32.264Z,0.25
2023-04-15T10:32:00.729Z,1.00
2023-04-15T10:34:30.311Z,1.00
2023-04-15T10:37:03.738Z,2.50
2023-04-15T10:39:34.672Z,2.00
2023-04-15T10:42:21.185Z,1.00
2023-04-15T10:44:53.728Z,3.50
2023-04-15T10:47:22.204Z,2.00
2023-04-15T10:50:01.162Z,2.25
2023-04-15T10:52:29.511Z,0.33
2023-04-15T10:55:04.813Z,0.00
2023-04-15T10:57:39.441Z,2.00
2023-04-15T11:00:15.009Z,1.00
2023-04-15T11:02:42.898Z,1.00
2023-04-15T11:05:18.187Z,1.00
2023-04-15T11:07:52.088Z,1.75
2023-04-15T11:10:25.945Z,1.00
2023-04-15T11:12:57.537Z,2.00
2023-04-15T11:15:34.506Z,1.33
2023-04-15T11:18:14.121Z,1.75
2023-04-15T11:20:43.333Z,2.00
2023-04-15T11:23:14.930Z,1.50
2023-04-15T11:25:43.853Z,3.00
2023-04-15T11:28:13.404Z,3.00
2023-04-15T11:30:42.253Z,5.00
2023-04-15T11:33:14.336Z,2.50
2023-04-15T11:35:42.735Z,3.00
2023-04-15T11:38:15.612Z,3.00
2023-04-15T11:40:46.794Z,2.00
2023-04-15T11:43:21.986Z,2.00
2023-04-15T11:46:03.926Z,2.00
2023-04-15T11:48:34.002Z,4.00
2023-04-15T11:51:07.051Z,3.75
2023-04-15T11:53:42.296Z,5.25
2023-04-15T11:56:11.929Z,5.00
2023-04-15T11:58:39.705Z,5.50
2023-04-15T12:01:07.986Z,1.00
2023-04-15T12:03:41.374Z,3.50
2023-04-15T12:06:19.641Z,2.00
2023-04-15T12:09:03.851Z,3.25
2023-04-15T12:11:45.201Z,4.75
2023-04-15T12:14:17.017Z,3.00
2023-04-15T12:16:52.551Z,2.00
2023-04-15T12:19:29.922Z,2.00
2023-04-15T12:22:11.033Z,2.00
2023-04-15T12:24:39.663Z,2.25
2023-04-15T12:27:09.594Z,3.25
2023-04-15T12:29:39.217Z,3.00
2023-04-15T12:32:11.332Z,6.00
2023-04-15T12:34:40.680Z,5.00
2023-04-15T12:37:10.555Z,8.00
2023-04-15T12:39:43.474Z,22.50
2023-04-15T12:42:12.054Z,6.75
2023-04-15T12:44:40.151Z,4.00
2023-04-15T12:47:08.021Z,3.00
2023-04-15T12:49:35.730Z,6.00
2023-04-15T12:52:03.750Z,3.00
2023-04-15T12:54:32.347Z,3.75
2023-04-15T12:57:01.265Z,5.00
2023-04-15T12:59:29.230Z,6.50
2023-04-15T13:01:57.567Z,4.75
2023-04-15T13:04:25.714Z,5.75
2023-04-15T13:06:53.510Z,13.67
2023-04-15T13:09:20.756Z,9.00
2023-04-15T13:11:49.719Z,4.25
2023-04-15T13:14:17.446Z,3.00
2023-04-15T13:16:45.197Z,2.50
2023-04-15T13:19:12.913Z,2.75
2023-04-15T13:21:40.002Z,4.00
2023-04-15T13:24:07.477Z,7.00
2023-04-15T13:26:34.664Z,6.00
2023-04-15T13:29:02.475Z,4.75
2023-04-15T13:31:30.573Z,7.00
2023-04-15T13:33:58.474Z,12.33
2023-04-15T13:36:27.522Z,19.00
2023-04-15T13:38:58.534Z,7.14
2023-04-15T13:41:25.547Z,4.00
2023-04-15T13:43:52.319Z,6.50
2023-04-15T13:46:19.359Z,2.00
2023-04-15T13:48:46.416Z,5.00
2023-04-15T13:51:14.159Z,3.75
2023-04-15T13:53:42.176Z,4.00
2023-04-15T13:56:09.391Z,6.00
2023-04-15T13:58:37.074Z,4.00
2023-04-15T14:01:05.716Z,8.00
2023-04-15T14:03:36.240Z,9.00
2023-04-15T14:06:05.920Z,3.00
2023-04-15T14:08:34.556Z,3.00
2023-04-15T14:11:02.420Z,1.75
2023-04-15T14:13:29.792Z,4.00
2023-04-15T14:15:57.550Z,3.00
2023-04-15T14:18:25.835Z,2.00
2023-04-15T14:20:54.089Z,6.50
2023-04-15T14:23:21.178Z,1.50
2023-04-15T14:25:51.872Z,2.75
2023-04-15T14:28:19.571Z,1.50
2023-04-15T14:30:46.718Z,2.50
2023-04-15T14:33:14.394Z,3.00
2023-04-15T14:35:42.473Z,3.00
2023-04-15T14:38:11.639Z,2.00
2023-04-15T14:40:39.444Z,4.00
2023-04-15T14:43:07.108Z,1.25
2023-04-15T14:45:35.354Z,2.50
2023-04-15T14:48:03.486Z,2.00
2023-04-15T14:50:31.164Z,2.25
2023-04-15T14:52:59.390Z,2.50
2023-04-15T14:55:26.227Z,6.00
2023-04-15T14:57:54.045Z,3.00
2023-04-15T15:00:25.706Z,4.71
2023-04-15T15:02:52.749Z,2.50
2023-04-15T15:05:19.820Z,4.00
2023-04-15T15:07:47.152Z,7.00
2023-04-15T15:10:14.792Z,2.75
2023-04-15T15:12:41.675Z,8.50
2023-04-15T15:15:25.217Z,5.00
2023-04-15T15:17:55.710Z,2.00
2023-04-15T15:20:24.174Z,6.00
2023-04-15T15:22:51.055Z,3.00
2023-04-15T15:25:19.018Z,3.00
2023-04-15T15:27:46.197Z,6.00
2023-04-15T15:30:13.481Z,4.00
2023-04-15T15:32:41.668Z,4.00
2023-04-15T15:35:11.135Z,2.75
2023-04-15T15:37:38.526Z,3.00
2023-04-15T15:40:05.916Z,4.00
2023-04-15T15:42:34.227Z,4.00
2023-04-15T15:45:01.172Z,3.50
2023-04-15T15:47:30.362Z,3.50
2023-04-15T15:50:00.579Z,5.00
2023-04-15T15:52:28.297Z,3.00
2023-04-15T15:54:56.173Z,2.00
2023-04-15T15:57:23.404Z,6.00
2023-04-15T16:00:00.770Z,5.50
2023-04-15T16:03:04.272Z,3.00
2023-04-15T16:05:24.396Z,4.00
2023-04-15T16:07:51.235Z,6.50
2023-04-15T16:10:18.124Z,6.50
2023-04-15T16:15:32.244Z,6.00
2023-04-15T16:17:59.590Z,7.00
2023-04-15T16:20:28.759Z,3.50
2023-04-15T16:22:58.315Z,4.00
2023-04-15T16:25:27.238Z,6.00
2023-04-15T16:28:01.470Z,10.00
2023-04-15T16:30:38.957Z,9.00
2023-04-15T16:33:07.410Z,8.25
2023-04-15T16:35:34.970Z,9.50
2023-04-15T16:38:01.908Z,9.00
2023-04-15T16:40:30.858Z,8.40
2023-04-15T16:42:57.651Z,8.00
2023-04-15T16:45:26.438Z,14.20
2023-04-15T16:47:56.871Z,12.60
2023-04-15T16:50:24.158Z,10.50
2023-04-15T16:52:51.335Z,13.00
2023-04-15T16:55:18.404Z,7.00
2023-04-15T16:58:03.171Z,10.00
2023-04-15T17:00:36.277Z,10.00
2023-04-15T17:03:03.826Z,7.00
2023-04-15T17:05:31.328Z,5.00
2023-04-15T17:07:58.386Z,7.00
2023-04-15T17:10:27.987Z,9.60
2023-04-15T17:12:57.811Z,9.00
2023-04-15T17:15:25.197Z,8.50
2023-04-15T17:17:54.461Z,14.00
2023-04-15T17:20:21.571Z,11.50
2023-04-15T17:22:49.482Z,17.00
2023-04-15T17:25:16.651Z,20.50
2023-04-15T17:27:45.318Z,35.00
2023-04-15T17:30:13.130Z,26.50
2023-04-15T17:32:45.065Z,34.00
2023-04-15T17:35:13.379Z,23.50
2023-04-15T17:37:41.213Z,23.67
2023-04-15T17:40:09.578Z,30.00
2023-04-15T17:42:36.829Z,21.00
2023-04-15T17:45:06.354Z,22.33
2023-04-15T17:47:35.316Z,13.33
2023-04-15T17:50:03.594Z,16.00
2023-04-15T17:52:30.632Z,22.00
2023-04-15T17:54:58.377Z,22.00
2023-04-15T17:57:26.496Z,24.50
2023-04-15T17:59:55.150Z,22.00
2023-04-15T18:02:23.033Z,22.00
2023-04-15T18:04:51.992Z,21.50
2023-04-15T18:07:22.394Z,23.00
2023-04-15T18:09:50.843Z,18.33
2023-04-15T18:12:18.716Z,24.67
2023-04-15T18:14:46.693Z,28.33
2023-04-15T18:17:15.405Z,33.67
2023-04-15T18:19:46.271Z,34.33
2023-04-15T18:22:16.192Z,42.67
2023-04-15T18:24:44.576Z,33.33
2023-04-15T18:27:13.220Z,39.00
2023-04-15T18:29:42.751Z,43.00
2023-04-15T18:32:11.569Z,47.00
2023-04-15T18:34:39.637Z,48.00
2023-04-15T18:37:08.424Z,38.67
2023-04-15T18:39:37.370Z,40.67
2023-04-15T18:42:05.338Z,37.00
2023-04-15T18:44:32.396Z,34.00
2023-04-15T18:47:01.649Z,37.33
2023-04-15T18:49:33.566Z,41.33
2023-04-15T18:52:02.173Z,31.00
2023-04-15T18:54:30.973Z,34.33
2023-04-15T18:56:59.120Z,30.00
2023-04-15T18:59:30.111Z,27.50
2023-04-15T19:01:59.664Z,27.00
2023-04-15T19:04:29.343Z,18.00
2023-04-15T19:06:59.163Z,17.33
2023-04-15T19:09:26.401Z,14.00
2023-04-15T19:11:54.267Z,20.67
2023-04-15T19:14:22.059Z,15.33
2023-04-15T19:16:48.994Z,9.50
2023-04-15T19:19:16.851Z,8.00
2023-04-15T19:21:46.850Z,11.25
2023-04-15T19:24:14.830Z,8.00
2023-04-15T19:26:41.608Z,10.00
2023-04-15T19:29:09.659Z,6.25
2023-04-15T19:31:37.520Z,10.75
2023-04-15T19:34:04.413Z,5.67
2023-04-15T19:36:35.984Z,4.00
2023-04-15T19:39:03.168Z,6.00
2023-04-15T19:41:30.335Z,3.33
2023-04-15T19:43:57.956Z,5.00
2023-04-15T19:46:24.875Z,3.33
2023-04-15T19:48:55.386Z,4.25
2023-04-15T19:51:22.276Z,5.00
2023-04-15T19:53:51.069Z,2.00
2023-04-15T19:56:17.873Z,3.33
2023-04-15T19:58:47.009Z,1.67
2023-04-15T20:01:14.003Z,3.33
2023-04-15T20:03:41.186Z,4.00
2023-04-15T20:06:08.969Z,4.00
2023-04-15T20:08:35.835Z,5.33
2023-04-15T20:11:03.731Z,9.75
2023-04-15T20:13:33.085Z,5.00
2023-04-15T20:16:00.790Z,7.00
2023-04-15T20:18:28.583Z,6.00
2023-04-15T20:20:56.247Z,8.50
2023-04-15T20:23:29.061Z,6.00
2023-04-15T20:25:56.829Z,4.00
2023-04-15T20:28:27.669Z,5.00
2023-04-15T20:30:55.476Z,2.50
2023-04-15T20:33:23.337Z,4.75
2023-04-15T20:35:52.189Z,3.33
2023-04-15T20:38:20.773Z,2.00
2023-04-15T20:40:48.586Z,31.00
2023-04-15T20:43:18.528Z,10.00
2023-04-15T20:45:45.831Z,13.00
2023-04-15T20:48:12.631Z,8.00
2023-04-15T20:50:40.020Z,9.00
2023-04-15T20:53:07.657Z,5.00
2023-04-15T20:55:35.374Z,7.00
2023-04-15T20:58:08.935Z,7.50
2023-04-15T21:00:36.666Z,4.00
2023-04-15T21:03:04.812Z,5.00
2023-04-15T21:05:32.848Z,5.50
2023-04-15T21:08:00.788Z,5.50
2023-04-15T21:10:34.577Z,1.75
2023-04-15T21:13:03.037Z,4.50
2023-04-15T21:15:30.740Z,4.50
2023-04-15T21:17:57.453Z,1.00
2023-04-15T21:20:24.255Z,5.00
2023-04-15T21:22:53.107Z,2.00
2023-04-15T21:25:20.866Z,2.25
2023-04-15T21:27:47.654Z,5.33
2023-04-15T21:30:15.458Z,4.00
2023-04-15T21:32:42.348Z,2.00
2023-04-15T21:35:10.487Z,4.00
2023-04-15T21:37:38.325Z,2.50
2023-04-15T21:40:06.672Z,1.75
2023-04-15T21:42:33.512Z,2.00
2023-04-15T21:45:00.548Z,1.00
2023-04-15T21:47:27.549Z,1.33
2023-04-15T21:49:55.363Z,1.00
2023-04-15T21:52:22.173Z,1.00
2023-04-15T21:54:49.804Z,2.50
2023-04-15T21:57:17.103Z,1.33
2023-04-15T21:59:44.296Z,3.33
2023-04-15T22:02:12.173Z,1.00
2023-04-15T22:04:39.884Z,2.00
2023-04-15T22:07:06.837Z,0.67
2023-04-15T22:09:33.826Z,2.00
2023-04-15T22:12:01.130Z,2.00
2023-04-15T22:14:28.617Z,2.00
2023-04-15T22:16:55.968Z,1.67
2023-04-15T22:19:22.642Z,1.00
2023-04-15T22:21:51.171Z,4.00
2023-04-15T22:24:34.573Z,2.00
2023-04-15T22:27:04.956Z,1.00
2023-04-15T22:29:31.708Z,1.00
2023-04-15T22:31:59.433Z,1.00
2023-04-15T22:34:27.127Z,2.00
2023-04-15T22:36:54.958Z,1.33
2023-04-15T22:39:21.657Z,1.00
2023-04-15T22:41:50.190Z,1.00
2023-04-15T22:44:17.061Z,2.00
2023-04-15T22:46:44.736Z,1.00
2023-04-15T22:49:11.437Z,1.00
2023-04-15T22:51:38.506Z,2.00
2023-04-15T22:54:05.284Z,2.00
2023-04-15T22:56:32.147Z,2.00
2023-04-15T22:58:58.945Z,1.00
2023-04-15T23:01:25.848Z,1.00
2023-04-15T23:03:56.807Z,1.00
2023-04-15T23:06:31.498Z,2.00
2023-04-15T23:08:59.223Z,2.25
2023-04-15T23:11:26.040Z,1.00
2023-04-15T23:13:53.917Z,2.25
2023-04-15T23:16:22.009Z,1.00
2023-04-15T23:18:48.944Z,1.00
2023-04-15T23:21:17.313Z,1.00
2023-04-15T23:23:44.624Z,2.00
2023-04-15T23:26:11.654Z,0.00
2023-04-15T23:28:39.272Z,1.00
2023-04-15T23:31:06.927Z,1.00
2023-04-15T23:33:34.588Z,2.00
2023-04-15T23:36:02.381Z,2.00
2023-04-15T23:38:30.090Z,1.00
2023-04-15T23:40:57.688Z,2.00
2023-04-15T23:43:25.410Z,3.50
2023-04-15T23:45:52.916Z,1.50
2023-04-15T23:48:23.877Z,2.00
2023-04-15T23:50:51.512Z,2.25
2023-04-15T23:53:19.207Z,3.00
2023-04-15T23:55:46.057Z,1.33
2023-04-15T23:58:12.778Z,1.00
